Time;durP1;ratioP1;P1;durP2;ratioP2;P2;SDS_P1;SDS_P2;PMS_P1;PMS_P2;Temp;Humidity;BMP_temperature;BMP_pressure;BME280_temperature;BME280_humidity;BME280_pressure;Samples;Min_cycle;Max_cycle;Signal;HPM_P1;HPM_P2
2022/11/19 00:01:21;;;;;;;11.07;2.20;;;9.20;99.90;;;;;;5090080;28;20031;-50
2022/11/19 00:03:48;;;;;;;8.13;2.38;;;9.20;99.90;;;;;;5089852;28;20387;-47
2022/11/19 00:06:22;;;;;;;8.63;2.15;;;9.20;99.90;;;;;;5090505;28;20020;-49
2022/11/19 00:08:48;;;;;;;13.02;2.80;;;9.20;99.90;;;;;;5090440;28;20028;-52
2022/11/19 00:14:12;;;;;;;8.70;2.53;;;9.10;99.90;;;;;;5092263;28;20054;-48
2022/11/19 00:16:37;;;;;;;7.70;2.08;;;9.10;99.90;;;;;;5091643;28;20498;-49
2022/11/19 00:19:03;;;;;;;7.82;2.28;;;9.10;99.90;;;;;;5091596;28;20103;-46
2022/11/19 00:21:29;;;;;;;8.70;2.40;;;9.10;99.90;;;;;;5091489;28;20411;-52
2022/11/19 00:23:55;;;;;;;7.22;2.00;;;9.10;99.90;;;;;;5091464;28;20027;-50
2022/11/19 00:26:22;;;;;;;7.38;1.95;;;9.10;99.90;;;;;;5088078;28;20033;-46
2022/11/19 00:28:47;;;;;;;7.38;2.00;;;9.10;99.90;;;;;;5087992;28;20102;-43
2022/11/19 00:31:14;;;;;;;6.45;1.75;;;9.10;99.90;;;;;;5091605;28;20123;-49
2022/11/19 00:33:41;;;;;;;7.38;1.88;;;9.00;99.90;;;;;;5091332;28;20085;-45
2022/11/19 00:36:09;;;;;;;10.63;2.65;;;9.00;99.90;;;;;;5091233;28;20048;-44
2022/11/19 00:38:35;;;;;;;7.63;2.58;;;9.00;99.90;;;;;;5091319;28;20103;-55
2022/11/19 00:41:01;;;;;;;6.07;1.77;;;9.00;99.90;;;;;;5091134;28;20433;-51
2022/11/19 00:46:21;;;;;;;12.32;1.88;;;9.00;99.90;;;;;;5085632;28;20097;-45
2022/11/19 00:48:49;;;;;;;7.70;1.75;;;9.00;99.90;;;;;;5084303;28;20013;-43
2022/11/19 00:51:16;;;;;;;6.78;1.70;;;9.00;99.90;;;;;;5090164;28;20020;-44
2022/11/19 00:53:41;;;;;;;5.68;1.98;;;8.90;99.90;;;;;;5090989;28;20491;-52
2022/11/19 00:56:10;;;;;;;8.02;2.13;;;8.90;99.90;;;;;;5089537;28;20036;-54
2022/11/19 00:58:37;;;;;;;6.15;1.70;;;8.90;99.90;;;;;;5084427;28;20028;-47
2022/11/19 01:01:03;;;;;;;5.60;2.28;;;8.90;99.90;;;;;;5090746;28;20032;-47
2022/11/19 01:03:29;;;;;;;9.75;2.05;;;8.90;99.90;;;;;;5090763;28;20469;-46
2022/11/19 01:05:55;;;;;;;8.95;1.70;;;8.90;99.90;;;;;;5091087;28;20032;-46
2022/11/19 01:08:21;;;;;;;7.68;2.00;;;8.90;99.90;;;;;;5090838;28;20051;-49
2022/11/19 01:10:47;;;;;;;6.15;1.80;;;8.80;99.90;;;;;;5072841;28;20477;-47
2022/11/19 01:15:57;;;;;;;10.60;2.10;;;8.80;99.90;;;;;;5090682;28;20463;-54
2022/11/19 01:18:22;;;;;;;5.72;1.77;;;8.70;99.90;;;;;;5071782;28;20021;-45
2022/11/19 01:20:48;;;;;;;6.85;1.60;;;8.70;99.90;;;;;;5090824;28;20121;-54
2022/11/19 01:23:14;;;;;;;6.15;1.92;;;8.70;99.90;;;;;;5090776;28;20031;-48
2022/11/19 01:25:40;;;;;;;7.05;1.67;;;8.60;99.90;;;;;;5090736;28;20020;-52
2022/11/19 01:28:05;;;;;;;6.20;2.10;;;8.60;99.90;;;;;;5090748;28;20095;-42
2022/11/19 01:30:32;;;;;;;6.50;1.80;;;8.60;99.90;;;;;;5090537;28;20036;-41
2022/11/19 01:32:57;;;;;;;8.82;2.10;;;8.60;99.90;;;;;;5090902;28;20097;-44
2022/11/19 01:35:23;;;;;;;7.15;2.03;;;8.60;99.90;;;;;;5090318;28;20678;-43
2022/11/19 01:37:50;;;;;;;8.80;2.10;;;8.60;99.90;;;;;;5090942;28;20020;-46
2022/11/19 01:40:15;;;;;;;7.55;2.08;;;8.60;99.90;;;;;;5090625;28;20508;-50
2022/11/19 01:42:52;;;;;;;7.65;2.50;;;8.60;99.90;;;;;;5090397;28;20020;-42
2022/11/19 01:45:21;;;;;;;6.32;1.88;;;8.50;99.90;;;;;;5090489;28;20431;-43
2022/11/19 01:47:47;;;;;;;7.60;1.80;;;8.60;99.90;;;;;;5089761;28;20009;-51
2022/11/19 01:50:13;;;;;;;5.50;2.03;;;8.60;99.90;;;;;;5081354;28;20034;-42
2022/11/19 01:52:38;;;;;;;11.85;2.33;;;8.60;99.90;;;;;;5072181;28;20035;-50
2022/11/19 01:55:06;;;;;;;10.73;2.03;;;8.50;99.90;;;;;;5090573;28;20119;-43
2022/11/19 01:57:32;;;;;;;4.75;1.60;;;8.50;99.90;;;;;;5090393;28;20024;-48
2022/11/19 01:59:58;;;;;;;10.57;2.08;;;8.50;99.90;;;;;;5090450;28;20024;-48
2022/11/19 02:02:24;;;;;;;7.82;1.65;;;8.50;99.90;;;;;;5093629;28;20081;-49
2022/11/19 02:04:51;;;;;;;7.28;1.77;;;8.50;99.90;;;;;;5094275;28;20074;-46
2022/11/19 02:07:21;;;;;;;7.75;1.83;;;8.50;99.90;;;;;;5094296;28;20031;-52
2022/11/19 02:09:46;;;;;;;;;;;8.40;99.90;;;;;;5076091;28;20481;-53
2022/11/19 02:12:18;;;;;;;11.45;2.67;;;8.50;99.90;;;;;;5092452;28;20470;-50
2022/11/19 02:15:11;;;;;;;6.68;1.75;;;8.40;99.90;;;;;;5093936;28;20039;-46
2022/11/19 02:17:55;;;;;;;7.30;2.05;;;8.50;99.90;;;;;;5094140;28;20028;-45
2022/11/19 02:20:27;;;;;;;6.53;1.75;;;8.50;99.90;;;;;;5080911;28;20028;-51
2022/11/19 02:23:13;;;;;;;14.02;2.38;;;8.50;99.90;;;;;;5093860;28;20434;-50
2022/11/19 02:25:58;;;;;;;4.18;1.50;;;8.40;99.90;;;;;;5093890;28;20100;-43
2022/11/19 02:28:33;;;;;;;7.32;1.77;;;8.40;99.90;;;;;;5093837;28;20032;-50
2022/11/19 02:31:24;;;;;;;5.40;1.70;;;8.40;99.90;;;;;;5080176;28;20035;-46
2022/11/19 02:34:00;;;;;;;8.07;1.73;;;8.40;99.90;;;;;;5093599;28;20112;-49
2022/11/19 02:36:38;;;;;;;7.50;1.75;;;8.40;99.90;;;;;;5093082;28;20043;-43
2022/11/19 02:39:23;;;;;;;8.32;1.90;;;8.40;99.90;;;;;;5093623;28;20020;-44
2022/11/19 02:42:01;;;;;;;5.25;1.60;;;8.40;99.90;;;;;;5085430;28;20032;-49
2022/11/19 02:44:57;;;;;;;12.65;2.40;;;8.40;99.90;;;;;;5093376;28;20073;-52
2022/11/19 02:47:29;;;;;;;11.07;1.92;;;8.30;99.90;;;;;;5093132;28;20162;-49
2022/11/19 02:50:00;;;;;;;9.27;1.98;;;8.30;99.90;;;;;;5093130;28;20036;-49
2022/11/19 02:52:27;;;;;;;11.25;1.98;;;8.20;99.90;;;;;;5093183;28;20036;-47
2022/11/19 02:54:52;;;;;;;8.23;1.95;;;8.20;99.90;;;;;;5093038;28;20057;-51
2022/11/19 02:57:18;;;;;;;7.78;1.45;;;8.10;99.90;;;;;;5093310;28;20056;-47
2022/11/19 03:06:22;;;;;;;7.53;1.83;;;8.10;99.90;;;;;;5049766;28;20108;-54
2022/11/19 03:08:47;;;;;;;6.85;2.15;;;8.00;99.90;;;;;;5082740;28;20036;-55
2022/11/19 03:11:17;;;;;;;8.98;1.95;;;8.00;99.90;;;;;;5066151;28;20384;-55
2022/11/19 03:16:41;;;;;;;5.72;1.80;;;7.90;99.90;;;;;;5081677;28;20113;-50
2022/11/19 03:19:33;;;;;;;7.57;2.22;;;7.80;99.90;;;;;;5092552;28;20028;-49
2022/11/19 03:22:14;;;;;;;14.82;2.47;;;7.70;99.90;;;;;;5080415;28;20541;-51
2022/11/19 03:24:44;;;;;;;10.73;2.92;;;7.60;99.90;;;;;;5092913;28;20035;-46
2022/11/19 03:27:15;;;;;;;;;;;7.50;99.90;;;;;;5093105;28;20085;-54
2022/11/19 03:29:46;;;;;;;12.63;2.65;;;7.50;99.90;;;;;;5092597;28;20328;-45
2022/11/19 03:32:25;;;;;;;6.28;1.90;;;7.50;99.90;;;;;;5092489;28;20062;-53
2022/11/19 03:34:56;;;;;;;9.35;2.00;;;7.50;99.90;;;;;;5092399;28;20088;-48
2022/11/19 03:37:25;;;;;;;10.98;2.10;;;7.50;99.90;;;;;;5092274;28;20026;-44
2022/11/19 03:39:52;;;;;;;11.48;2.10;;;7.50;99.90;;;;;;5092483;28;20047;-44
2022/11/19 03:42:20;;;;;;;10.02;2.60;;;7.50;99.90;;;;;;5090912;28;20052;-52
2022/11/19 03:44:53;;;;;;;6.28;2.10;;;7.50;99.90;;;;;;5091890;28;20012;-43
2022/11/19 03:47:28;;;;;;;10.77;2.17;;;7.40;99.90;;;;;;5092176;28;20024;-48
2022/11/19 03:50:04;;;;;;;8.65;2.90;;;7.40;99.90;;;;;;5092175;28;20119;-52
2022/11/19 03:52:30;;;;;;;8.02;2.10;;;7.30;99.90;;;;;;5090662;28;20028;-48
2022/11/19 03:54:56;;;;;;;8.27;2.13;;;7.30;99.90;;;;;;5085278;28;20077;-48
2022/11/19 03:57:23;;;;;;;4.93;1.80;;;7.30;99.90;;;;;;5092212;28;20114;-44
2022/11/19 03:59:49;;;;;;;5.65;1.75;;;7.30;99.90;;;;;;5073655;28;20024;-51
2022/11/19 04:02:15;;;;;;;6.20;1.80;;;7.30;99.90;;;;;;5091989;28;20036;-56
2022/11/19 04:04:41;;;;;;;9.30;2.30;;;7.30;99.90;;;;;;5091638;28;20072;-54
2022/11/19 04:07:08;;;;;;;7.90;1.83;;;7.30;99.90;;;;;;5091745;28;20024;-44
2022/11/19 04:09:34;;;;;;;6.88;2.08;;;7.30;99.90;;;;;;5091677;28;20031;-47
2022/11/19 04:12:00;;;;;;;12.63;2.22;;;7.20;99.90;;;;;;5091744;28;20027;-42
2022/11/19 04:14:26;;;;;;;7.07;1.83;;;7.20;99.90;;;;;;5091514;28;20035;-51
2022/11/19 04:16:51;;;;;;;8.27;2.10;;;7.20;99.90;;;;;;5091335;28;20032;-53
2022/11/19 04:19:17;;;;;;;6.15;1.85;;;7.30;99.90;;;;;;5091632;28;20032;-50
2022/11/19 04:21:43;;;;;;;10.10;2.30;;;7.30;99.90;;;;;;5090818;28;20028;-49
2022/11/19 04:24:09;;;;;;;5.53;2.10;;;7.30;99.90;;;;;;5091101;28;20024;-57
2022/11/19 04:26:35;;;;;;;5.47;1.80;;;7.30;99.90;;;;;;5091337;28;20030;-47
2022/11/19 04:29:00;;;;;;;6.53;2.13;;;7.30;99.90;;;;;;5087867;28;20016;-57
2022/11/19 04:31:26;;;;;;;8.27;2.10;;;7.30;99.90;;;;;;5087245;28;20044;-45
2022/11/19 04:33:52;;;;;;;9.65;2.42;;;7.30;99.90;;;;;;5090728;28;20024;-49
2022/11/19 04:36:17;;;;;;;12.93;2.28;;;7.30;99.90;;;;;;5091000;28;20044;-52
2022/11/19 04:38:43;;;;;;;7.13;1.95;;;7.30;99.90;;;;;;5091592;28;20032;-47
2022/11/19 04:41:08;;;;;;;8.73;2.15;;;7.30;99.90;;;;;;5091321;28;20028;-53
2022/11/19 04:43:34;;;;;;;9.63;2.42;;;7.40;99.90;;;;;;5091242;28;20016;-51
2022/11/19 04:45:59;;;;;;;7.45;2.50;;;7.40;99.90;;;;;;5091452;28;20039;-48
2022/11/19 04:48:25;;;;;;;9.43;2.33;;;7.40;99.90;;;;;;5091671;28;20016;-49
2022/11/19 04:50:51;;;;;;;7.03;1.95;;;7.30;99.90;;;;;;5090235;28;20032;-49
2022/11/19 04:53:16;;;;;;;5.25;2.13;;;7.40;99.90;;;;;;5091035;28;20080;-50
2022/11/19 04:55:42;;;;;;;8.88;2.08;;;7.40;99.90;;;;;;5091084;28;20032;-45
2022/11/19 04:58:08;;;;;;;9.43;2.33;;;7.40;99.90;;;;;;5091224;28;20059;-50
2022/11/19 05:00:33;;;;;;;7.97;1.90;;;7.40;99.90;;;;;;5091083;28;20469;-49
2022/11/19 05:03:02;;;;;;;9.45;2.17;;;7.40;99.90;;;;;;5090817;28;20035;-47
2022/11/19 05:05:28;;;;;;;6.63;1.87;;;7.40;99.90;;;;;;5091094;28;20024;-53
2022/11/19 05:07:53;;;;;;;7.30;1.90;;;7.40;99.90;;;;;;5090884;28;20111;-44
2022/11/19 05:10:19;;;;;;;8.27;2.30;;;7.40;99.90;;;;;;5091188;28;20077;-48
2022/11/19 05:12:45;;;;;;;11.05;2.97;;;7.40;99.90;;;;;;5090753;28;20457;-42
2022/11/19 05:15:10;;;;;;;6.45;2.10;;;7.40;99.90;;;;;;5089985;28;20043;-41
2022/11/19 05:17:36;;;;;;;9.20;2.40;;;7.40;99.90;;;;;;5090599;28;20059;-48
2022/11/19 05:20:02;;;;;;;7.07;1.88;;;7.40;99.90;;;;;;5091148;28;20020;-52
2022/11/19 05:22:27;;;;;;;6.22;2.15;;;7.50;99.90;;;;;;5091005;28;20032;-51
2022/11/19 05:24:53;;;;;;;9.07;2.80;;;7.50;99.90;;;;;;5090681;28;20099;-45
2022/11/19 05:27:18;;;;;;;9.93;2.05;;;7.50;99.90;;;;;;5090806;28;20027;-48
2022/11/19 05:29:44;;;;;;;8.18;2.03;;;7.50;99.90;;;;;;5090648;28;20690;-46
2022/11/19 05:32:10;;;;;;;9.30;2.05;;;7.50;99.90;;;;;;5090763;28;20028;-47
2022/11/19 05:34:35;;;;;;;7.35;2.22;;;7.50;99.90;;;;;;5090606;28;20032;-42
2022/11/19 05:37:01;;;;;;;8.50;1.95;;;7.50;99.90;;;;;;5093215;28;20096;-48
2022/11/19 05:39:26;;;;;;;6.72;2.25;;;7.50;99.90;;;;;;5095023;28;20024;-51
2022/11/19 05:41:52;;;;;;;6.35;2.42;;;7.60;99.90;;;;;;5094627;28;20392;-50
2022/11/19 05:44:18;;;;;;;7.22;1.90;;;7.60;99.90;;;;;;5094120;28;20035;-50
2022/11/19 05:46:43;;;;;;;8.48;1.77;;;7.60;99.90;;;;;;5086043;28;20019;-46
2022/11/19 05:49:09;;;;;;;7.47;2.15;;;7.60;99.90;;;;;;5094591;28;20032;-52
2022/11/19 05:51:35;;;;;;;9.43;2.55;;;7.60;99.90;;;;;;5094520;28;20150;-52
2022/11/19 05:54:00;;;;;;;7.65;2.20;;;7.70;99.90;;;;;;5094610;28;20024;-55
2022/11/19 05:56:26;;;;;;;8.30;2.83;;;7.60;99.90;;;;;;5094483;28;20492;-52
2022/11/19 05:58:51;;;;;;;8.13;2.00;;;7.60;99.90;;;;;;5094647;28;20028;-49
2022/11/19 06:01:24;;;;;;;4.70;2.00;;;7.60;99.90;;;;;;5094687;28;20058;-51
2022/11/19 06:03:50;;;;;;;6.28;2.20;;;7.60;99.90;;;;;;5094588;28;20107;-48
2022/11/19 06:06:16;;;;;;;5.90;2.22;;;7.60;99.90;;;;;;5094189;28;20131;-47
2022/11/19 06:08:41;;;;;;;7.90;2.40;;;7.60;99.90;;;;;;5094395;28;20107;-51
2022/11/19 06:11:46;;;;;;;10.32;2.30;;;7.60;99.90;;;;;;5094098;28;20032;-43
2022/11/19 06:13:53;;;;;;;11.07;2.30;;;7.60;99.90;;;;;;5093794;28;20077;-42
2022/11/19 06:16:18;;;;;;;7.22;2.42;;;7.60;99.90;;;;;;5092899;28;20044;-50
2022/11/19 06:18:44;;;;;;;8.43;2.60;;;7.60;99.90;;;;;;5076228;28;20066;-49
2022/11/19 06:21:09;;;;;;;9.10;2.20;;;7.60;99.90;;;;;;5093978;28;20678;-51
2022/11/19 06:23:35;;;;;;;6.25;2.28;;;7.50;99.90;;;;;;5094155;28;20024;-48
2022/11/19 06:26:00;;;;;;;7.45;2.17;;;7.60;99.90;;;;;;5093957;28;20366;-48
2022/11/19 06:28:26;;;;;;;5.85;1.95;;;7.60;99.90;;;;;;5093674;28;20095;-47
2022/11/19 06:30:51;;;;;;;8.43;2.30;;;7.60;99.90;;;;;;5093901;28;20366;-44
2022/11/19 06:33:17;;;;;;;8.95;2.25;;;7.60;99.90;;;;;;5093915;28;20024;-48
2022/11/19 06:35:43;;;;;;;9.15;1.92;;;7.60;99.90;;;;;;5093577;28;20044;-44
2022/11/19 06:38:08;;;;;;;6.22;2.40;;;7.50;99.90;;;;;;5093613;28;20047;-49
2022/11/19 06:40:34;;;;;;;9.32;2.05;;;7.60;99.90;;;;;;5093525;28;20082;-52
2022/11/19 06:42:59;;;;;;;10.40;2.38;;;7.50;99.90;;;;;;5093555;28;20080;-49
2022/11/19 06:45:25;;;;;;;8.98;2.40;;;7.50;99.90;;;;;;5088743;28;20165;-47
2022/11/19 06:47:51;;;;;;;8.05;2.53;;;7.50;99.90;;;;;;5083500;28;20400;-44
2022/11/19 06:50:17;;;;;;;8.18;2.25;;;7.50;99.90;;;;;;5093603;28;20035;-50
2022/11/19 06:52:42;;;;;;;5.03;1.90;;;7.50;99.90;;;;;;5093379;28;20362;-51
2022/11/19 06:55:08;;;;;;;9.75;2.47;;;7.50;99.90;;;;;;5093266;28;20043;-47
2022/11/19 06:57:34;;;;;;;8.15;2.22;;;7.50;99.90;;;;;;5093174;28;20020;-53
2022/11/19 07:00:00;;;;;;;12.52;3.33;;;7.60;99.90;;;;;;5074963;28;20109;-48
2022/11/19 07:02:25;;;;;;;3.95;2.03;;;7.60;99.90;;;;;;5093352;28;20093;-51
2022/11/19 07:04:51;;;;;;;5.20;2.15;;;7.60;99.90;;;;;;5093116;28;20166;-45
2022/11/19 07:07:16;;;;;;;6.55;2.00;;;7.60;99.90;;;;;;5093178;28;20032;-55
2022/11/19 07:09:42;;;;;;;14.73;2.33;;;7.60;99.90;;;;;;5074846;28;20087;-47
2022/11/19 07:12:08;;;;;;;7.35;2.10;;;7.60;99.90;;;;;;5092402;28;20032;-42
2022/11/19 07:14:34;;;;;;;6.45;2.17;;;7.60;99.90;;;;;;5092026;28;20035;-49
2022/11/19 07:17:00;;;;;;;6.85;1.73;;;7.60;99.90;;;;;;5086850;28;20067;-42
2022/11/19 07:19:26;;;;;;;6.50;2.00;;;7.60;99.90;;;;;;5091343;28;20043;-49
2022/11/19 07:21:52;;;;;;;8.68;2.10;;;7.70;99.90;;;;;;5080046;28;20081;-51
2022/11/19 07:24:18;;;;;;;6.72;1.98;;;7.70;99.90;;;;;;5092844;28;20024;-52
2022/11/19 07:26:44;;;;;;;9.82;3.63;;;7.70;99.90;;;;;;5092632;28;20016;-54
2022/11/19 07:29:12;;;;;;;7.93;2.30;;;7.70;99.90;;;;;;5092655;28;20388;-47
2022/11/19 07:31:38;;;;;;;10.65;3.30;;;7.70;99.90;;;;;;5090093;28;20102;-49
2022/11/19 07:34:08;;;;;;;10.82;3.60;;;7.80;99.90;;;;;;5092436;28;20142;-52
2022/11/19 07:36:34;;;;;;;10.00;2.85;;;7.80;99.90;;;;;;5092184;28;20101;-57
2022/11/19 07:39:00;;;;;;;7.93;2.22;;;7.80;99.90;;;;;;5092398;28;20016;-46
2022/11/19 07:44:10;;;;;;;8.40;2.55;;;7.80;99.90;;;;;;5091120;28;20023;-50
2022/11/19 07:46:35;;;;;;;9.10;1.98;;;7.80;99.90;;;;;;5089484;28;20028;-57
2022/11/19 07:49:01;;;;;;;8.35;2.08;;;7.80;99.90;;;;;;5090047;28;20060;-57
2022/11/19 07:51:27;;;;;;;7.95;2.00;;;7.90;99.90;;;;;;5089934;28;20115;-55
2022/11/19 07:53:54;;;;;;;4.82;1.80;;;7.90;99.90;;;;;;5088091;28;20023;-49
2022/11/19 07:56:21;;;;;;;8.10;1.83;;;7.90;99.90;;;;;;5088167;28;20039;-51
2022/11/19 07:58:47;;;;;;;7.10;1.85;;;8.00;99.90;;;;;;5091124;28;20035;-52
2022/11/19 08:01:17;;;;;;;7.75;1.98;;;8.00;99.90;;;;;;5091403;28;20028;-44
2022/11/19 08:03:45;;;;;;;6.07;1.85;;;8.00;99.90;;;;;;5091476;28;20020;-53
2022/11/19 08:06:12;;;;;;;8.45;2.10;;;8.10;99.90;;;;;;5091036;28;20085;-48
2022/11/19 08:08:37;;;;;;;8.30;2.20;;;8.10;99.90;;;;;;5090943;28;20028;-43
2022/11/19 08:11:08;;;;;;;9.18;2.40;;;8.10;99.90;;;;;;5078076;28;20044;-61
2022/11/19 08:13:34;;;;;;;6.97;2.08;;;8.10;99.90;;;;;;5091466;28;20042;-56
2022/11/19 08:16:04;;;;;;;8.82;2.53;;;8.20;99.90;;;;;;5090074;28;20066;-45
2022/11/19 08:18:31;;;;;;;8.55;2.10;;;8.20;99.90;;;;;;5091812;28;20019;-62
2022/11/19 08:21:03;;;;;;;6.05;1.83;;;8.20;99.90;;;;;;5085015;28;20030;-53
2022/11/19 08:23:30;;;;;;;8.90;1.90;;;8.20;99.90;;;;;;5065584;28;20558;-54
2022/11/19 08:25:55;;;;;;;7.13;1.75;;;8.30;99.90;;;;;;5080696;28;20024;-46
2022/11/19 08:28:21;;;;;;;9.00;2.25;;;8.30;99.90;;;;;;5087700;28;20458;-52
2022/11/19 08:30:46;;;;;;;7.05;1.80;;;8.30;99.90;;;;;;5088213;28;20026;-46
2022/11/19 08:33:12;;;;;;;9.50;2.58;;;8.40;99.90;;;;;;5088077;28;20020;-49
2022/11/19 08:35:38;;;;;;;9.10;2.28;;;8.40;99.90;;;;;;5087935;28;20028;-44
2022/11/19 08:38:04;;;;;;;4.93;1.85;;;8.40;99.90;;;;;;5088035;28;20024;-45
2022/11/19 08:40:29;;;;;;;4.95;1.65;;;8.40;99.90;;;;;;5090459;28;20020;-54
2022/11/19 08:43:01;;;;;;;7.45;1.90;;;8.50;99.90;;;;;;5091262;28;20028;-43
2022/11/19 08:45:35;;;;;;;7.28;1.70;;;8.50;99.90;;;;;;5079579;28;20111;-42
2022/11/19 08:48:04;;;;;;;5.53;1.58;;;8.60;99.90;;;;;;5091222;28;20024;-47
2022/11/19 08:50:30;;;;;;;5.82;1.63;;;8.60;99.90;;;;;;5091052;28;20024;-43
2022/11/19 08:53:05;;;;;;;7.93;1.90;;;8.70;99.90;;;;;;5091160;28;20024;-50
2022/11/19 08:55:31;;;;;;;7.22;1.80;;;8.70;99.90;;;;;;5072703;28;20453;-42
2022/11/19 08:58:06;;;;;;;7.47;1.67;;;8.80;99.90;;;;;;5072804;28;20020;-53
2022/11/19 09:00:34;;;;;;;12.88;2.38;;;8.80;99.90;;;;;;5090868;28;20039;-46
2022/11/19 09:02:59;;;;;;;8.00;1.70;;;8.90;99.90;;;;;;5091099;28;20146;-52
2022/11/19 09:05:26;;;;;;;7.30;2.05;;;8.90;99.90;;;;;;5091206;28;20064;-52
2022/11/19 09:07:53;;;;;;;8.18;1.73;;;9.00;99.90;;;;;;5090910;28;20366;-45
2022/11/19 09:10:19;;;;;;;8.43;2.17;;;9.10;99.90;;;;;;5090566;28;20047;-44
2022/11/19 09:12:45;;;;;;;8.55;1.83;;;9.10;99.90;;;;;;5090721;28;20132;-49
2022/11/19 09:15:11;;;;;;;7.53;1.58;;;9.20;99.90;;;;;;5083965;28;20066;-57
2022/11/19 09:17:37;;;;;;;8.07;1.55;;;9.20;99.90;;;;;;5085197;28;20024;-43
2022/11/19 09:20:03;;;;;;;10.40;1.55;;;9.20;99.90;;;;;;5090757;28;20031;-46
2022/11/19 09:22:30;;;;;;;7.25;1.77;;;9.20;99.90;;;;;;5090891;28;20036;-50
2022/11/19 09:24:56;;;;;;;6.28;1.70;;;9.20;99.90;;;;;;5090837;28;20027;-49
2022/11/19 09:27:21;;;;;;;7.07;1.52;;;9.40;99.90;;;;;;5090748;28;20396;-49
2022/11/19 09:29:47;;;;;;;7.78;1.73;;;9.40;99.90;;;;;;5090569;28;20031;-51
2022/11/19 09:32:13;;;;;;;9.95;1.92;;;9.50;99.90;;;;;;5072944;28;20115;-47
2022/11/19 09:34:40;;;;;;;11.88;2.05;;;9.50;99.90;;;;;;5090422;28;20107;-51
2022/11/19 09:37:07;;;;;;;9.35;1.52;;;9.50;99.90;;;;;;5090477;28;20067;-50
2022/11/19 09:39:33;;;;;;;8.27;2.30;;;9.60;99.90;;;;;;5090675;28;20028;-50
2022/11/19 09:42:40;;;;;;;8.27;1.30;;;9.70;99.90;;;;;;5090339;28;20082;-48
2022/11/19 09:45:24;;;;;;;5.97;1.50;;;9.70;99.90;;;;;;5040560;28;20037;-47
2022/11/19 09:48:01;;;;;;;6.97;1.33;;;9.70;99.90;;;;;;5090485;28;20036;-56
2022/11/19 09:50:44;;;;;;;9.43;2.33;;;9.70;99.90;;;;;;5090060;28;20443;-51
2022/11/19 09:53:33;;;;;;;7.85;1.67;;;9.80;99.90;;;;;;5090407;28;20080;-52
2022/11/19 09:55:59;;;;;;;5.80;1.50;;;9.80;99.90;;;;;;5090293;28;20032;-44
2022/11/19 09:58:44;;;;;;;5.82;1.80;;;9.90;99.90;;;;;;5090368;28;20082;-48
2022/11/19 10:01:17;;;;;;;10.07;1.80;;;10.00;99.90;;;;;;5090141;28;20048;-46
2022/11/19 10:03:50;;;;;;;10.30;1.90;;;9.90;99.90;;;;;;5090458;28;20570;-44
2022/11/19 10:06:23;;;;;;;6.40;1.50;;;9.90;99.90;;;;;;5090335;28;20123;-47
2022/11/19 10:09:48;;;;;;;9.27;1.85;;;10.00;99.90;;;;;;5090436;28;20016;-43
2022/11/19 10:12:41;;;;;;;10.20;1.90;;;10.00;99.90;;;;;;5052054;28;20070;-43
2022/11/19 10:15:22;;;;;;;4.40;1.33;;;10.00;99.90;;;;;;5050818;28;20021;-43
2022/11/19 10:17:57;;;;;;;6.38;1.30;;;10.00;99.90;;;;;;5067104;28;20044;-44
2022/11/19 10:20:42;;;;;;;6.75;2.00;;;10.00;99.90;;;;;;5090473;28;20035;-49
2022/11/19 10:23:25;;;;;;;9.50;1.73;;;10.20;99.90;;;;;;5091039;28;20039;-45
2022/11/19 10:25:59;;;;;;;6.57;1.60;;;10.20;99.90;;;;;;5093997;28;20481;-46
2022/11/19 10:28:29;;;;;;;10.88;1.85;;;10.20;99.90;;;;;;5094113;28;20055;-48
2022/11/19 10:30:57;;;;;;;;;;;12.00;99.90;;;;;;5094445;28;20028;-43
2022/11/19 10:33:48;;;;;;;4.77;1.13;;;15.40;99.90;;;;;;5093800;28;20258;-46
2022/11/19 10:36:30;;;;;;;7.50;1.90;;;18.00;97.60;;;;;;5093494;28;20381;-51
2022/11/19 10:39:02;;;;;;;9.38;1.80;;;18.50;95.70;;;;;;5081266;28;20060;-43
2022/11/19 10:41:49;;;;;;;6.65;1.48;;;18.80;93.10;;;;;;5093473;28;20028;-47
2022/11/19 10:44:36;;;;;;;7.03;1.70;;;18.80;93.60;;;;;;5092834;28;20028;-43
2022/11/19 10:47:12;;;;;;;9.35;1.80;;;19.80;90.70;;;;;;5093455;28;20488;-46
2022/11/19 10:49:40;;;;;;;8.25;1.70;;;21.00;85.90;;;;;;5093726;28;20028;-47
2022/11/19 10:52:33;;;;;;;8.17;1.53;;;20.30;84.00;;;;;;5074974;28;20036;-44
2022/11/19 10:55:03;;;;;;;9.30;2.47;;;19.40;87.60;;;;;;5092575;28;20029;-45
2022/11/19 10:57:31;;;;;;;6.80;1.30;;;19.00;87.30;;;;;;5093179;28;20028;-46
2022/11/19 10:59:59;;;;;;;4.78;1.48;;;18.20;87.50;;;;;;5093165;28;20329;-53
2022/11/19 11:02:48;;;;;;;5.25;1.50;;;17.20;90.20;;;;;;5093135;28;20377;-49
2022/11/19 11:05:15;;;;;;;;;;;16.70;90.70;;;;;;5075466;28;20101;-52
2022/11/19 11:07:52;;;;;;;6.25;1.50;;;16.20;91.40;;;;;;5093031;28;19904;-44
2022/11/19 11:10:25;;;;;;;6.43;1.50;;;15.80;93.20;;;;;;5093263;28;20043;-54
2022/11/19 11:15:47;;;;;;;7.75;1.73;;;15.60;94.40;;;;;;5081965;28;20122;-46
2022/11/19 11:18:14;;;;;;;10.55;2.72;;;15.50;94.10;;;;;;5092150;28;20024;-43
2022/11/19 11:20:46;;;;;;;8.27;1.92;;;15.40;93.90;;;;;;5092957;28;20118;-42
2022/11/19 11:23:21;;;;;;;10.65;1.90;;;15.50;93.20;;;;;;5092753;28;20032;-41
2022/11/19 11:26:04;;;;;;;8.40;2.00;;;15.70;93.00;;;;;;5083910;28;20028;-51
2022/11/19 11:28:30;;;;;;;5.95;1.77;;;15.80;92.10;;;;;;5078548;28;20016;-44
2022/11/19 11:31:09;;;;;;;7.75;2.15;;;16.20;93.30;;;;;;5092784;28;20430;-49
2022/11/19 11:33:53;;;;;;;8.00;2.07;;;15.90;92.80;;;;;;5092312;28;20028;-47
2022/11/19 11:36:26;;;;;;;7.38;2.17;;;15.70;92.60;;;;;;5092426;28;20324;-51
2022/11/19 11:38:54;;;;;;;9.38;2.03;;;15.00;93.60;;;;;;5092541;28;20374;-55
2022/11/19 11:41:23;;;;;;;8.23;1.73;;;14.70;94.60;;;;;;5092569;28;20020;-43
2022/11/19 11:44:03;;;;;;;6.80;1.77;;;14.50;95.20;;;;;;5079314;28;20081;-45
2022/11/19 11:46:42;;;;;;;6.38;1.85;;;14.40;95.30;;;;;;5083862;28;20032;-43
2022/11/19 11:49:18;;;;;;;4.55;1.50;;;14.60;94.70;;;;;;5081120;28;20104;-43
2022/11/19 11:51:44;;;;;;;12.40;3.17;;;15.30;95.10;;;;;;5088089;28;20036;-46
2022/11/19 11:54:17;;;;;;;6.43;1.83;;;16.20;93.70;;;;;;5087885;28;20430;-49
2022/11/19 11:56:43;;;;;;;5.38;1.50;;;16.70;93.10;;;;;;5085869;28;20097;-47
2022/11/19 11:59:29;;;;;;;6.28;1.65;;;17.30;91.40;;;;;;5087709;28;20476;-48
2022/11/19 12:02:07;;;;;;;6.75;1.40;;;17.90;89.50;;;;;;5084799;28;20542;-43
2022/11/19 12:04:33;;;;;;;8.10;1.80;;;17.50;90.30;;;;;;5074642;28;20020;-49
2022/11/19 12:06:59;;;;;;;6.88;1.70;;;16.90;90.80;;;;;;5076692;28;20392;-49
2022/11/19 12:09:43;;;;;;;7.95;1.75;;;16.70;90.70;;;;;;5076105;28;20023;-51
2022/11/19 12:12:21;;;;;;;6.03;1.65;;;16.10;92.60;;;;;;5071898;28;20039;-48
2022/11/19 12:15:08;;;;;;;7.00;1.80;;;15.70;92.90;;;;;;5077248;28;20100;-43
2022/11/19 12:17:55;;;;;;;6.72;1.73;;;15.20;93.80;;;;;;5081055;28;20503;-46
2022/11/19 12:20:41;;;;;;;6.70;2.97;;;14.90;93.70;;;;;;5082603;28;20496;-42
2022/11/19 12:23:32;;;;;;;9.55;2.00;;;14.60;94.10;;;;;;5073456;28;20028;-43
2022/11/19 12:26:25;;;;;;;5.47;1.50;;;14.10;95.90;;;;;;5083869;28;20476;-48
2022/11/19 12:29:12;;;;;;;6.15;1.55;;;14.00;96.10;;;;;;5077713;28;20035;-46
2022/11/19 12:31:59;;;;;;;5.88;1.50;;;14.00;96.70;;;;;;5083434;28;20020;-50
2022/11/19 12:34:35;;;;;;;3.88;1.05;;;14.10;97.10;;;;;;5091114;28;20488;-42
